Avoca, New York
Current Conditions -  °F | °C
As of 2:54 PM on Thursday 29 Jan 2015 (Local Time) from KDSV Reporting Station
Overcast Overcast  
Wind Chill: 27°   Ceiling: 7500
Heat Index: 37°   Visibility: 10mi
Dew Point: 10°   Wind: 18mph
Humidity: 33%   Direction: 150°SSE
Pressure: 29.79"   Gusts: 30mph
Location:  42.41°N, 77.42°W
Report Text: KDSV 291954Z AUTO 15016G26KT 10SM SCT042 BKN075 OVC090 03/M12 A2979 RMK AO2 PK WND 15027/1943 SLP106 T00281122
Loading
Personal Weather Stations






























Interactive Weather Map New forecast layout! Learn more

10-Day Weather Forecast

Advertisements
Track Severe Weather on mobile